createdAt,value
2018-08-08T00:00:57.260Z,21.90
2018-08-08T00:03:24.517Z,21.80
2018-08-08T00:05:51.760Z,21.70
2018-08-08T00:08:18.952Z,21.60
2018-08-08T00:10:46.136Z,21.60
2018-08-08T00:13:13.303Z,21.60
2018-08-08T00:15:40.486Z,21.70
2018-08-08T00:18:07.675Z,21.60
2018-08-08T00:20:34.879Z,21.60
2018-08-08T00:23:02.094Z,21.60
2018-08-08T00:25:29.300Z,21.60
2018-08-08T00:27:56.503Z,21.60
2018-08-08T00:30:23.711Z,21.50
2018-08-08T00:32:50.903Z,21.40
2018-08-08T00:35:18.108Z,21.50
2018-08-08T00:37:45.303Z,21.40
2018-08-08T00:40:13.747Z,21.50
2018-08-08T00:42:41.611Z,21.60
2018-08-08T00:45:11.192Z,21.60
2018-08-08T00:47:38.923Z,21.60
2018-08-08T00:50:07.498Z,21.60
2018-08-08T00:52:34.708Z,21.60
2018-08-08T00:55:01.903Z,21.50
2018-08-08T00:57:29.093Z,21.40
2018-08-08T00:59:56.283Z,21.30
2018-08-08T01:02:23.479Z,21.40
2018-08-08T01:04:50.648Z,21.50
2018-08-08T01:07:17.867Z,21.60
2018-08-08T01:09:45.063Z,21.60
2018-08-08T01:12:12.273Z,21.60
2018-08-08T01:14:39.448Z,21.60
2018-08-08T01:17:06.805Z,21.50
2018-08-08T01:19:33.979Z,21.40
2018-08-08T01:22:01.176Z,21.30
2018-08-08T01:24:28.434Z,21.30
2018-08-08T01:26:55.640Z,21.30
2018-08-08T01:29:22.826Z,21.20
2018-08-08T01:31:50.017Z,21.20
2018-08-08T01:34:17.210Z,21.20
2018-08-08T01:36:44.375Z,21.30
2018-08-08T01:39:11.555Z,21.40
2018-08-08T01:41:38.788Z,21.50
2018-08-08T01:44:06.405Z,21.50
2018-08-08T01:46:33.632Z,21.50
2018-08-08T01:49:00.935Z,21.50
2018-08-08T01:51:28.123Z,21.40
2018-08-08T01:53:55.288Z,21.40
2018-08-08T01:56:22.655Z,21.40
2018-08-08T01:58:50.013Z,21.40
2018-08-08T02:01:17.188Z,21.40
2018-08-08T02:03:44.384Z,21.50
2018-08-08T02:06:11.588Z,21.50
2018-08-08T02:08:38.772Z,21.50
2018-08-08T02:11:05.978Z,21.60
2018-08-08T02:13:33.165Z,21.70
2018-08-08T02:16:00.343Z,21.50
2018-08-08T02:18:27.731Z,21.60
2018-08-08T02:20:54.946Z,21.60
2018-08-08T02:23:22.127Z,21.50
2018-08-08T02:25:49.296Z,21.70
2018-08-08T02:28:16.488Z,21.60
2018-08-08T02:30:43.688Z,21.60
2018-08-08T02:33:10.863Z,21.50
2018-08-08T02:35:38.028Z,21.50
2018-08-08T02:38:05.223Z,21.40
2018-08-08T02:40:32.667Z,21.40
2018-08-08T02:42:59.939Z,21.30
2018-08-08T02:45:27.158Z,21.30
2018-08-08T02:47:54.365Z,21.20
2018-08-08T02:50:21.571Z,21.20
2018-08-08T02:52:48.792Z,21.20
2018-08-08T02:55:15.995Z,21.30
2018-08-08T02:57:43.376Z,21.30
2018-08-08T03:00:12.108Z,21.40
2018-08-08T03:02:39.305Z,21.40
2018-08-08T03:05:08.306Z,21.30
2018-08-08T03:07:35.513Z,21.30
2018-08-08T03:10:03.903Z,21.30
2018-08-08T03:12:31.371Z,21.20
2018-08-08T03:14:58.556Z,21.10
2018-08-08T03:17:25.764Z,21.10
2018-08-08T03:19:52.946Z,21.10
2018-08-08T03:22:20.120Z,21.00
2018-08-08T03:24:47.287Z,21.10
2018-08-08T03:27:14.599Z,21.00
2018-08-08T03:29:41.774Z,21.00
2018-08-08T03:32:09.128Z,21.00
2018-08-08T03:34:36.608Z,21.00
2018-08-08T03:37:03.945Z,20.90
2018-08-08T03:39:31.132Z,20.80
2018-08-08T03:41:58.305Z,20.70
2018-08-08T03:44:25.512Z,20.70
2018-08-08T03:46:52.688Z,20.60
2018-08-08T03:49:19.863Z,20.50
2018-08-08T03:51:47.018Z,20.50
2018-08-08T03:54:14.202Z,20.60
2018-08-08T03:56:41.379Z,20.60
2018-08-08T03:59:08.555Z,20.70
2018-08-08T04:01:35.740Z,20.70
2018-08-08T04:04:02.920Z,20.70
2018-08-08T04:06:30.093Z,20.70
2018-08-08T04:08:57.289Z,20.80
2018-08-08T04:11:24.454Z,20.90
2018-08-08T04:13:51.624Z,21.10
2018-08-08T04:16:18.873Z,21.10
2018-08-08T04:18:46.056Z,21.10
2018-08-08T04:21:13.270Z,21.20
2018-08-08T04:23:40.454Z,21.30
2018-08-08T04:26:07.644Z,21.30
2018-08-08T04:28:34.812Z,21.30
2018-08-08T04:31:02.175Z,21.30
2018-08-08T04:33:30.300Z,21.30
2018-08-08T04:35:57.525Z,21.40
2018-08-08T04:38:24.843Z,21.50
2018-08-08T04:40:52.049Z,21.50
2018-08-08T04:43:19.271Z,21.50
2018-08-08T04:45:46.512Z,21.60
2018-08-08T04:48:13.743Z,21.50
2018-08-08T04:50:41.002Z,21.50
2018-08-08T04:53:08.198Z,21.50
2018-08-08T04:55:35.503Z,21.50
2018-08-08T04:58:02.760Z,21.50
2018-08-08T05:00:29.976Z,21.60
2018-08-08T05:02:57.296Z,21.60
2018-08-08T05:05:24.525Z,21.70
2018-08-08T05:07:51.829Z,21.70
2018-08-08T05:10:19.090Z,21.80
2018-08-08T05:12:46.352Z,21.90
2018-08-08T05:15:15.040Z,21.90
2018-08-08T05:17:42.647Z,21.90
2018-08-08T05:20:10.593Z,21.90
2018-08-08T05:22:37.817Z,21.90
2018-08-08T05:25:05.370Z,21.80
2018-08-08T05:27:32.719Z,21.80
2018-08-08T05:29:59.947Z,21.80
2018-08-08T05:32:27.226Z,21.70
2018-08-08T05:34:54.427Z,21.60
2018-08-08T05:37:21.633Z,21.60
2018-08-08T05:39:48.956Z,21.60
2018-08-08T05:42:16.128Z,21.60
2018-08-08T05:44:43.408Z,21.60
2018-08-08T05:47:10.655Z,21.60
2018-08-08T05:49:37.940Z,21.70
2018-08-08T05:52:05.257Z,21.70
2018-08-08T05:54:32.481Z,21.80
2018-08-08T05:56:59.684Z,21.90
2018-08-08T05:59:26.899Z,22.00
2018-08-08T06:01:54.235Z,22.10
2018-08-08T06:04:21.397Z,22.10
2018-08-08T06:06:48.606Z,22.20
2018-08-08T06:09:15.804Z,22.10
2018-08-08T06:11:43.009Z,21.80
2018-08-08T06:14:10.196Z,21.40
2018-08-08T06:16:37.392Z,21.10
2018-08-08T06:19:04.609Z,20.80
2018-08-08T06:21:31.771Z,20.70
2018-08-08T06:23:59.883Z,20.60
2018-08-08T06:26:27.091Z,20.50
2018-08-08T06:28:54.283Z,20.60
2018-08-08T06:31:21.503Z,20.70
2018-08-08T06:33:48.807Z,20.80
2018-08-08T06:36:16.015Z,21.00
2018-08-08T06:38:43.186Z,21.10
2018-08-08T06:41:10.472Z,21.20
2018-08-08T06:43:37.678Z,21.40
2018-08-08T06:46:04.896Z,21.50
2018-08-08T06:48:32.101Z,21.70
2018-08-08T06:50:59.294Z,21.80
2018-08-08T06:53:26.482Z,22.00
2018-08-08T06:55:53.673Z,22.10
2018-08-08T06:58:20.858Z,22.20
2018-08-08T07:00:48.128Z,22.20
2018-08-08T07:03:15.332Z,22.30
2018-08-08T07:05:42.543Z,22.60
2018-08-08T07:08:09.716Z,22.70
2018-08-08T07:10:36.912Z,22.70
2018-08-08T07:13:04.089Z,22.50
2018-08-08T07:15:31.295Z,22.40
2018-08-08T07:17:58.475Z,22.30
2018-08-08T07:20:25.652Z,22.30
2018-08-08T07:22:52.843Z,22.60
2018-08-08T07:25:20.044Z,23.10
2018-08-08T07:27:47.784Z,23.70
2018-08-08T07:30:16.364Z,24.40
2018-08-08T07:32:43.727Z,24.80
2018-08-08T07:35:11.590Z,25.30
2018-08-08T07:37:39.604Z,26.00
2018-08-08T07:40:08.632Z,26.60
2018-08-08T07:42:35.975Z,26.40
2018-08-08T07:45:04.640Z,26.00
2018-08-08T07:47:31.837Z,25.60
2018-08-08T07:49:59.024Z,25.70
2018-08-08T07:52:26.186Z,26.30
2018-08-08T07:54:53.380Z,27.00
2018-08-08T07:57:20.572Z,27.50
2018-08-08T07:59:47.746Z,27.90
2018-08-08T08:02:14.923Z,28.20
2018-08-08T08:04:42.116Z,27.80
2018-08-08T08:07:09.316Z,27.60
2018-08-08T08:09:36.506Z,27.60
2018-08-08T08:12:03.678Z,27.30
2018-08-08T08:14:30.836Z,27.10
2018-08-08T08:16:57.998Z,26.70
2018-08-08T08:19:25.195Z,26.60
2018-08-08T08:21:52.351Z,26.80
2018-08-08T08:24:19.507Z,27.60
2018-08-08T08:26:46.697Z,28.90
2018-08-08T08:29:13.896Z,30.10
2018-08-08T08:31:41.064Z,31.10
2018-08-08T08:34:08.258Z,31.70
2018-08-08T08:36:35.427Z,32.20
2018-08-08T08:39:02.685Z,33.20
2018-08-08T08:41:29.859Z,33.80
2018-08-08T08:43:57.015Z,33.80
2018-08-08T08:46:24.321Z,33.90
2018-08-08T08:48:51.807Z,33.70
2018-08-08T08:51:18.979Z,33.70
2018-08-08T08:53:49.508Z,34.20
2018-08-08T08:56:16.663Z,34.60
2018-08-08T08:58:43.849Z,34.40
2018-08-08T09:01:11.030Z,34.60
2018-08-08T09:03:38.187Z,33.90
2018-08-08T09:06:05.356Z,33.40
2018-08-08T09:08:32.640Z,33.00
2018-08-08T09:10:59.808Z,33.20
2018-08-08T09:13:27.011Z,33.70
2018-08-08T09:15:54.198Z,33.70
2018-08-08T09:18:21.405Z,33.40
2018-08-08T09:20:48.589Z,33.50
2018-08-08T09:23:15.766Z,33.60
2018-08-08T09:25:42.953Z,33.70
2018-08-08T09:28:10.112Z,33.90
2018-08-08T09:30:37.380Z,33.90
2018-08-08T09:33:10.900Z,34.30
2018-08-08T09:35:38.095Z,34.50
2018-08-08T09:38:05.267Z,34.90
2018-08-08T09:40:32.427Z,33.90
2018-08-08T09:42:59.609Z,33.80
2018-08-08T09:45:26.776Z,34.10
2018-08-08T09:47:53.931Z,34.40
2018-08-08T09:50:21.116Z,33.80
2018-08-08T09:52:48.268Z,34.00
2018-08-08T09:55:15.467Z,34.00
2018-08-08T09:57:42.640Z,33.90
2018-08-08T10:00:14.448Z,34.50
2018-08-08T10:02:47.428Z,33.70
2018-08-08T10:05:14.660Z,33.20
2018-08-08T10:07:41.836Z,34.50
2018-08-08T10:10:09.024Z,35.40
2018-08-08T10:12:36.193Z,35.60
2018-08-08T10:15:03.780Z,36.30
2018-08-08T10:17:31.004Z,36.30
2018-08-08T10:19:58.182Z,35.80
2018-08-08T10:22:25.340Z,35.70
2018-08-08T10:24:52.515Z,35.60
2018-08-08T10:27:19.664Z,35.10
2018-08-08T10:29:46.838Z,32.90
2018-08-08T10:32:14.101Z,32.20
2018-08-08T10:34:41.244Z,32.70
2018-08-08T10:37:08.415Z,32.00
2018-08-08T10:39:35.628Z,31.50
2018-08-08T10:42:02.784Z,31.10
2018-08-08T10:44:30.018Z,30.60
2018-08-08T10:46:57.185Z,30.60
2018-08-08T10:49:24.357Z,31.10
2018-08-08T10:51:51.535Z,31.30
2018-08-08T10:54:18.709Z,31.10
2018-08-08T10:56:45.879Z,31.00
2018-08-08T10:59:13.043Z,31.00
2018-08-08T11:01:40.197Z,30.60
2018-08-08T11:04:08.152Z,31.30
2018-08-08T11:06:35.323Z,32.20
2018-08-08T11:09:03.072Z,33.20
2018-08-08T11:11:30.205Z,33.20
2018-08-08T11:13:57.385Z,33.40
2018-08-08T11:16:24.568Z,33.60
2018-08-08T11:18:51.736Z,34.10
2018-08-08T11:21:18.909Z,33.90
2018-08-08T11:23:46.118Z,33.00
2018-08-08T11:26:13.264Z,32.90
2018-08-08T11:28:40.436Z,33.50
2018-08-08T11:31:07.980Z,33.60
2018-08-08T11:33:35.140Z,33.20
2018-08-08T11:36:02.332Z,32.50
2018-08-08T11:38:29.513Z,32.20
2018-08-08T11:40:56.704Z,32.10
2018-08-08T11:43:23.867Z,32.90
2018-08-08T11:45:51.028Z,33.50
2018-08-08T11:48:18.195Z,33.60
2018-08-08T11:50:45.415Z,33.50
2018-08-08T11:53:12.584Z,33.50
2018-08-08T11:55:39.764Z,33.70
2018-08-08T11:58:06.948Z,34.10
2018-08-08T12:00:34.116Z,34.00
2018-08-08T12:03:01.301Z,34.20
2018-08-08T12:05:28.461Z,34.80
2018-08-08T12:07:56.031Z,34.90
2018-08-08T12:10:23.244Z,35.40
2018-08-08T12:12:51.271Z,35.50
2018-08-08T12:15:18.629Z,35.40
2018-08-08T12:17:45.799Z,35.50
2018-08-08T12:20:12.956Z,35.10
2018-08-08T12:22:40.125Z,34.90
2018-08-08T12:25:07.279Z,35.00
2018-08-08T12:27:34.452Z,35.00
2018-08-08T12:30:01.649Z,34.10
2018-08-08T12:32:28.820Z,33.70
2018-08-08T12:34:56.005Z,33.70
2018-08-08T12:37:23.204Z,33.30
2018-08-08T12:39:50.387Z,32.60
2018-08-08T12:42:17.608Z,32.00
2018-08-08T12:44:44.845Z,31.70
2018-08-08T12:47:11.979Z,31.50
2018-08-08T12:49:39.140Z,31.60
2018-08-08T12:52:06.324Z,32.10
2018-08-08T12:54:33.479Z,32.30
2018-08-08T12:57:00.680Z,32.40
2018-08-08T12:59:27.885Z,32.30
2018-08-08T13:01:55.076Z,32.20
2018-08-08T13:04:23.029Z,32.20
2018-08-08T13:06:51.264Z,32.60
2018-08-08T13:09:18.503Z,32.70
2018-08-08T13:11:45.801Z,32.30
2018-08-08T13:14:13.384Z,32.20
2018-08-08T13:16:40.497Z,32.50
2018-08-08T13:19:08.100Z,33.40
2018-08-08T13:21:35.370Z,34.10
2018-08-08T13:24:02.715Z,34.80
2018-08-08T13:26:30.028Z,34.80
2018-08-08T13:28:57.368Z,34.00
2018-08-08T13:31:24.657Z,32.80
2018-08-08T13:33:52.031Z,30.70
2018-08-08T13:36:19.219Z,29.10
2018-08-08T13:38:46.519Z,28.30
2018-08-08T13:41:13.803Z,27.50
2018-08-08T13:43:41.040Z,26.30
2018-08-08T13:46:08.296Z,25.30
2018-08-08T13:48:35.601Z,24.60
2018-08-08T13:51:02.863Z,23.90
2018-08-08T13:53:31.223Z,23.40
2018-08-08T13:55:58.467Z,23.00
2018-08-08T13:58:25.771Z,22.80
2018-08-08T14:00:53.310Z,22.50
2018-08-08T14:03:20.609Z,22.50
2018-08-08T14:05:47.794Z,22.50
2018-08-08T14:08:15.016Z,22.50
2018-08-08T14:10:42.218Z,22.60
2018-08-08T14:13:09.419Z,22.70
2018-08-08T14:15:36.721Z,22.70
2018-08-08T14:18:04.585Z,22.70
2018-08-08T14:20:32.083Z,22.80
2018-08-08T14:22:59.201Z,22.80
2018-08-08T14:25:26.364Z,22.80
2018-08-08T14:27:53.539Z,22.80
2018-08-08T14:30:20.785Z,22.90
2018-08-08T14:32:47.944Z,23.00
2018-08-08T14:35:15.216Z,23.10
2018-08-08T14:37:42.663Z,23.40
2018-08-08T14:40:09.957Z,23.70
2018-08-08T14:42:37.128Z,24.20
2018-08-08T14:45:04.702Z,24.80
2018-08-08T14:47:31.916Z,25.30
2018-08-08T14:49:59.154Z,25.80
2018-08-08T14:52:26.469Z,25.90
2018-08-08T14:54:53.697Z,26.00
2018-08-08T14:57:20.877Z,26.00
2018-08-08T14:59:48.096Z,25.90
2018-08-08T15:02:15.434Z,25.80
2018-08-08T15:04:42.707Z,25.90
2018-08-08T15:07:09.892Z,26.10
2018-08-08T15:09:37.076Z,26.40
2018-08-08T15:12:04.267Z,27.30
2018-08-08T15:14:31.560Z,28.10
2018-08-08T15:16:58.892Z,28.50
2018-08-08T15:19:26.075Z,28.60
2018-08-08T15:21:53.459Z,28.60
2018-08-08T15:24:20.744Z,28.60
2018-08-08T15:26:47.913Z,28.70
2018-08-08T15:29:15.099Z,29.00
2018-08-08T15:31:42.341Z,29.40
2018-08-08T15:34:09.642Z,29.90
2018-08-08T15:36:37.014Z,29.90
2018-08-08T15:39:05.888Z,30.00
2018-08-08T15:41:33.165Z,30.20
2018-08-08T15:44:00.372Z,30.60
2018-08-08T15:46:27.535Z,31.20
2018-08-08T15:48:54.717Z,30.90
2018-08-08T15:51:21.983Z,30.30
2018-08-08T15:53:49.148Z,29.70
2018-08-08T15:56:16.396Z,29.70
2018-08-08T15:58:43.607Z,29.80
2018-08-08T16:01:10.794Z,29.80
2018-08-08T16:03:37.971Z,30.00
2018-08-08T16:06:05.188Z,30.40
2018-08-08T16:08:32.357Z,30.50
2018-08-08T16:10:59.564Z,30.20
2018-08-08T16:13:26.830Z,30.20
2018-08-08T16:15:54.008Z,30.30
2018-08-08T16:18:21.212Z,30.40
2018-08-08T16:20:48.594Z,30.40
2018-08-08T16:23:15.784Z,30.40
2018-08-08T16:25:42.963Z,29.90
2018-08-08T16:28:10.148Z,29.80
2018-08-08T16:30:37.378Z,29.60
2018-08-08T16:33:04.645Z,29.60
2018-08-08T16:35:31.853Z,29.60
2018-08-08T16:37:59.101Z,29.80
2018-08-08T16:40:26.528Z,29.80
2018-08-08T16:42:53.815Z,29.90
2018-08-08T16:45:21.020Z,29.60
2018-08-08T16:47:48.192Z,29.60
2018-08-08T16:50:15.556Z,29.60
2018-08-08T16:52:42.955Z,29.60
2018-08-08T16:55:10.509Z,29.50
2018-08-08T16:57:38.033Z,29.20
2018-08-08T17:00:07.456Z,28.70
2018-08-08T17:02:34.611Z,28.40
2018-08-08T17:05:01.796Z,28.20
2018-08-08T17:07:28.975Z,27.90
2018-08-08T17:09:56.123Z,27.80
2018-08-08T17:12:23.299Z,27.80
2018-08-08T17:14:50.461Z,28.00
2018-08-08T17:17:17.715Z,28.20
2018-08-08T17:19:44.871Z,28.40
2018-08-08T17:22:12.044Z,28.60
2018-08-08T17:24:39.196Z,28.70
2018-08-08T17:27:06.360Z,28.70
2018-08-08T17:29:33.639Z,28.50
2018-08-08T17:32:00.918Z,28.10
2018-08-08T17:34:28.071Z,27.70
2018-08-08T17:36:55.247Z,27.30
2018-08-08T17:39:22.420Z,27.10
2018-08-08T17:41:49.595Z,26.80
2018-08-08T17:44:16.772Z,26.60
2018-08-08T17:46:43.948Z,26.40
2018-08-08T17:49:11.123Z,26.20
2018-08-08T17:51:38.305Z,26.10
2018-08-08T17:54:05.485Z,25.80
2018-08-08T17:56:32.678Z,25.60
2018-08-08T17:58:59.813Z,25.50
2018-08-08T18:01:26.989Z,25.40
2018-08-08T18:03:54.208Z,25.30
2018-08-08T18:06:21.404Z,25.20
2018-08-08T18:08:48.577Z,25.00
2018-08-08T18:11:15.736Z,25.00
2018-08-08T18:13:42.948Z,25.00
2018-08-08T18:16:10.103Z,24.80
2018-08-08T18:18:37.275Z,24.70
2018-08-08T18:21:04.442Z,24.60
2018-08-08T18:23:31.711Z,24.50
2018-08-08T18:25:58.874Z,24.40
2018-08-08T18:28:26.063Z,24.40
2018-08-08T18:30:53.240Z,24.30
2018-08-08T18:33:20.452Z,24.20
2018-08-08T18:35:47.654Z,24.10
2018-08-08T18:38:14.889Z,24.00
2018-08-08T18:40:42.025Z,23.90
2018-08-08T18:43:09.204Z,23.80
2018-08-08T18:45:36.348Z,23.70
2018-08-08T18:48:03.786Z,23.60
2018-08-08T18:50:30.951Z,23.60
2018-08-08T18:52:58.143Z,23.50
2018-08-08T18:55:25.323Z,23.40
2018-08-08T18:57:52.496Z,23.40
2018-08-08T19:00:19.683Z,23.30
2018-08-08T19:02:46.871Z,23.30
2018-08-08T19:05:14.203Z,23.20
2018-08-08T19:07:41.545Z,23.20
2018-08-08T19:10:08.719Z,23.10
2018-08-08T19:12:36.564Z,23.10
2018-08-08T19:15:04.484Z,23.10
2018-08-08T19:17:31.637Z,23.10
2018-08-08T19:19:58.873Z,23.10
2018-08-08T19:22:25.969Z,23.00
2018-08-08T19:24:53.163Z,23.00
2018-08-08T19:27:20.343Z,22.90
2018-08-08T19:29:47.535Z,23.00
2018-08-08T19:32:14.717Z,22.90
2018-08-08T19:34:41.904Z,22.90
2018-08-08T19:37:09.078Z,22.90
2018-08-08T19:39:36.256Z,22.90
2018-08-08T19:42:03.432Z,22.90
2018-08-08T19:44:30.592Z,22.90
2018-08-08T19:46:57.756Z,22.90
2018-08-08T19:49:25.080Z,22.80
2018-08-08T19:51:52.270Z,22.80
2018-08-08T19:54:19.435Z,22.70
2018-08-08T19:56:46.598Z,22.70
2018-08-08T19:59:13.840Z,22.70
2018-08-08T20:01:41.003Z,22.70
2018-08-08T20:04:08.177Z,22.60
2018-08-08T20:06:35.341Z,22.60
2018-08-08T20:09:03.079Z,22.60
2018-08-08T20:11:30.249Z,22.60
2018-08-08T20:13:57.428Z,22.60
2018-08-08T20:16:24.604Z,22.70
2018-08-08T20:18:51.761Z,22.70
2018-08-08T20:21:18.908Z,22.80
2018-08-08T20:23:46.096Z,22.80
2018-08-08T20:26:13.272Z,22.80
2018-08-08T20:28:40.443Z,22.80
2018-08-08T20:31:07.607Z,22.80
2018-08-08T20:33:34.777Z,22.80
2018-08-08T20:36:01.948Z,22.70
2018-08-08T20:38:29.125Z,22.70
2018-08-08T20:40:56.299Z,22.70
2018-08-08T20:43:23.475Z,22.60
2018-08-08T20:45:50.637Z,22.50
2018-08-08T20:48:17.793Z,22.50
2018-08-08T20:50:44.998Z,22.40
2018-08-08T20:53:12.179Z,22.20
2018-08-08T20:55:39.376Z,22.30
2018-08-08T20:58:06.569Z,22.20
2018-08-08T21:00:33.777Z,22.20
2018-08-08T21:03:00.954Z,22.10
2018-08-08T21:05:28.127Z,22.10
2018-08-08T21:07:55.356Z,22.10
2018-08-08T21:10:22.528Z,22.00
2018-08-08T21:12:49.683Z,22.00
2018-08-08T21:15:16.840Z,22.00
2018-08-08T21:17:44.107Z,22.00
2018-08-08T21:20:11.223Z,22.00
2018-08-08T21:22:38.390Z,22.00
2018-08-08T21:25:05.580Z,22.10
2018-08-08T21:27:33.165Z,22.10
2018-08-08T21:30:00.349Z,22.00
2018-08-08T21:32:27.567Z,22.00
2018-08-08T21:34:54.730Z,22.00
2018-08-08T21:37:21.920Z,22.00
2018-08-08T21:39:49.093Z,22.00
2018-08-08T21:42:16.261Z,22.00
2018-08-08T21:44:43.443Z,22.00
2018-08-08T21:47:10.636Z,22.00
2018-08-08T21:49:37.817Z,22.00
2018-08-08T21:52:05.207Z,22.10
2018-08-08T21:54:43.992Z,22.10
2018-08-08T21:57:22.828Z,22.20
2018-08-08T22:00:01.717Z,22.20
2018-08-08T22:02:40.536Z,22.20
2018-08-08T22:05:19.268Z,22.20
2018-08-08T22:07:58.069Z,22.20
2018-08-08T22:10:36.918Z,22.10
2018-08-08T22:13:15.666Z,22.10
2018-08-08T22:15:54.502Z,22.00
2018-08-08T22:18:42.126Z,22.00
2018-08-08T22:21:09.311Z,22.00
2018-08-08T22:23:36.510Z,22.10
2018-08-08T22:26:03.744Z,22.10
2018-08-08T22:28:30.904Z,22.10
2018-08-08T22:30:58.107Z,22.20
2018-08-08T22:33:25.273Z,22.10
2018-08-08T22:35:52.450Z,22.10
2018-08-08T22:38:19.614Z,22.00
2018-08-08T22:40:46.770Z,22.00
2018-08-08T22:43:13.921Z,21.90
2018-08-08T22:45:41.092Z,21.90
2018-08-08T22:48:08.260Z,21.90
2018-08-08T22:50:35.879Z,21.80
2018-08-08T22:53:03.165Z,21.80
2018-08-08T22:55:30.403Z,21.80
2018-08-08T22:57:57.597Z,21.80
2018-08-08T23:00:24.801Z,21.80
2018-08-08T23:02:51.967Z,21.80
2018-08-08T23:05:19.124Z,21.80
2018-08-08T23:07:46.296Z,21.80
2018-08-08T23:10:13.484Z,21.70
2018-08-08T23:12:40.659Z,21.60
2018-08-08T23:15:08.933Z,21.50
2018-08-08T23:17:36.571Z,21.40
2018-08-08T23:20:04.572Z,21.40
2018-08-08T23:22:43.290Z,21.40
2018-08-08T23:25:10.453Z,21.40
2018-08-08T23:27:37.624Z,21.40
2018-08-08T23:30:04.788Z,21.40
2018-08-08T23:32:32.025Z,21.40
2018-08-08T23:34:59.205Z,21.40
2018-08-08T23:37:26.398Z,21.30
2018-08-08T23:39:53.570Z,21.30
2018-08-08T23:42:20.727Z,21.30
2018-08-08T23:44:47.899Z,21.30
2018-08-08T23:47:15.080Z,21.20
2018-08-08T23:49:42.237Z,21.20
2018-08-08T23:52:09.395Z,21.10
2018-08-08T23:54:36.560Z,21.10
2018-08-08T23:57:03.756Z,21.10
2018-08-08T23:59:30.941Z,21.10
